CheckWX is a tool to help pilots better visualize weather data.  It is not intended as a substitute for an official pre-flight weather briefing.

09:03:12 UTC

KBKD METAR
Stephens County Airport
Breckenridge, Texas, USA
Current

28 mins ago

KBKD 220835Z AUTO 11007KT 10SM OVC010 09/06 A2994 RMK AO2 T00850055
Observed
Feb-22 @ 08:35 UTC
Wind
  • 110° at 7 KTS
Visibility
10 SM
Flight Rules
MVFR
Cloud Levels
  • Overcast at 1,000' AGL
Temperature
C / 48°F
Dewpoint
C / 43°F
Humidity
82%
Altimeter
29.94" Hg
Pressure
1013.92 hPa
Previous

48 mins ago

KBKD 220815Z AUTO 12010KT 10SM OVC010 09/06 A2996 RMK AO2 T00850055
Observed
Feb-22 @ 08:15 UTC
Wind
  • 120° at 10 KTS
Visibility
10 SM
Flight Rules
MVFR
Cloud Levels
  • Overcast at 1,000' AGL
Temperature
C / 48°F
Dewpoint
C / 43°F
Humidity
82%
Altimeter
29.96" Hg
Pressure
1014.52 hPa
Previous

1 hour ago

KBKD 220755Z AUTO 11008KT 10SM OVC010 09/05 A2995 RMK AO2 T00850053
Observed
Feb-22 @ 07:55 UTC
Wind
  • 110° at 8 KTS
Visibility
10 SM
Flight Rules
MVFR
Cloud Levels
  • Overcast at 1,000' AGL
Temperature
C / 48°F
Dewpoint
C / 41°F
Humidity
76%
Altimeter
29.95" Hg
Pressure
1014.22 hPa